createdAt,value
2022-10-19T00:04:32.243Z,6.34
2022-10-19T00:09:36.453Z,6.68
2022-10-19T00:14:40.532Z,6.76
2022-10-19T00:19:48.537Z,6.55
2022-10-19T00:24:53.642Z,6.99
2022-10-19T00:29:57.767Z,6.74
2022-10-19T00:35:03.822Z,6.65
2022-10-19T00:40:09.904Z,6.15
2022-10-19T00:45:16.948Z,6.26
2022-10-19T00:50:22.898Z,6.70
2022-10-19T00:55:27.355Z,6.56
2022-10-19T01:00:31.978Z,6.13
2022-10-19T01:05:39.707Z,5.70
2022-10-19T01:10:50.397Z,5.43
2022-10-19T01:16:01.796Z,5.66
2022-10-19T01:21:22.947Z,5.88
2022-10-19T01:26:45.460Z,6.05
2022-10-19T01:31:57.255Z,6.10
2022-10-19T01:37:08.450Z,5.80
2022-10-19T01:42:18.125Z,6.04
2022-10-19T01:47:27.250Z,6.01
2022-10-19T01:52:35.302Z,6.05
2022-10-19T01:57:44.871Z,5.68
2022-10-19T02:02:52.516Z,5.71
2022-10-19T02:08:02.611Z,6.01
2022-10-19T02:13:09.460Z,5.83
2022-10-19T02:18:19.887Z,5.69
2022-10-19T02:23:27.063Z,5.79
2022-10-19T02:28:31.705Z,5.72
2022-10-19T02:33:38.156Z,5.74
2022-10-19T02:38:43.490Z,5.69
2022-10-19T02:43:51.419Z,5.55
2022-10-19T02:48:59.335Z,5.17
2022-10-19T02:54:05.356Z,5.02
2022-10-19T02:59:09.721Z,5.47
2022-10-19T03:04:15.750Z,5.28
2022-10-19T03:09:20.381Z,4.98
2022-10-19T03:14:24.520Z,4.98
2022-10-19T03:19:31.156Z,5.22
2022-10-19T03:24:37.245Z,5.18
2022-10-19T03:29:41.749Z,5.23
2022-10-19T03:34:47.381Z,5.22
2022-10-19T03:39:51.365Z,5.27
2022-10-19T03:44:55.345Z,5.62
2022-10-19T03:50:00.806Z,5.42
2022-10-19T03:55:04.942Z,5.02
2022-10-19T04:00:10.583Z,5.15
2022-10-19T04:05:21.956Z,5.32
2022-10-19T04:10:26.023Z,5.07
2022-10-19T04:15:30.355Z,4.94
2022-10-19T04:20:36.261Z,4.54
2022-10-19T04:25:40.715Z,4.42
2022-10-19T04:30:44.716Z,3.89
2022-10-19T04:35:50.396Z,3.71
2022-10-19T04:40:55.656Z,3.96
2022-10-19T04:46:04.434Z,3.85
2022-10-19T04:51:11.540Z,4.46
2022-10-19T04:56:17.608Z,4.12
2022-10-19T05:01:23.207Z,3.98
2022-10-19T05:06:29.223Z,4.09
2022-10-19T05:11:33.186Z,3.91
2022-10-19T05:16:37.101Z,3.84
2022-10-19T05:21:44.460Z,3.80
2022-10-19T05:26:48.506Z,3.86
2022-10-19T05:31:52.794Z,4.07
2022-10-19T05:36:58.404Z,4.32
2022-10-19T05:42:02.364Z,4.79
2022-10-19T05:47:06.571Z,4.97
2022-10-19T05:52:15.347Z,5.63
2022-10-19T05:57:19.390Z,6.00
2022-10-19T06:02:24.065Z,6.58
2022-10-19T06:07:29.484Z,6.85
2022-10-19T06:12:33.534Z,7.07
2022-10-19T06:17:37.509Z,6.91
2022-10-19T06:22:43.140Z,7.49
2022-10-19T06:27:47.779Z,8.68
2022-10-19T06:32:52.578Z,9.47
2022-10-19T06:37:58.970Z,10.51
2022-10-19T06:43:03.157Z,11.59
2022-10-19T06:48:08.272Z,12.37
2022-10-19T06:53:14.138Z,13.80
2022-10-19T06:58:18.205Z,14.20
2022-10-19T07:03:22.758Z,14.63
2022-10-19T07:08:30.045Z,15.14
2022-10-19T07:13:35.057Z,15.87
2022-10-19T07:18:41.645Z,15.77
2022-10-19T07:23:49.420Z,16.38
2022-10-19T07:28:58.287Z,16.45
2022-10-19T07:34:07.464Z,17.40
2022-10-19T07:39:13.293Z,17.79
2022-10-19T07:44:17.477Z,18.06
2022-10-19T07:49:21.876Z,18.63
2022-10-19T07:54:27.792Z,18.73
2022-10-19T07:59:31.987Z,18.65
2022-10-19T08:10:04.685Z,19.11
2022-10-19T08:15:10.821Z,18.82
2022-10-19T08:20:16.617Z,19.83
2022-10-19T08:25:22.508Z,20.00
2022-10-19T08:30:29.183Z,19.89
2022-10-19T08:35:33.447Z,20.07
2022-10-19T08:40:39.564Z,20.68
2022-10-19T08:45:45.324Z,21.51
2022-10-19T08:50:50.561Z,22.04
2022-10-19T08:56:15.024Z,22.50
2022-10-19T09:01:37.584Z,22.26
2022-10-19T09:06:51.117Z,22.42
2022-10-19T09:12:08.700Z,22.11
2022-10-19T09:17:17.027Z,21.46
2022-10-19T09:22:25.515Z,21.98
2022-10-19T09:27:37.056Z,22.29
2022-10-19T09:32:41.435Z,22.64
2022-10-19T09:37:49.584Z,23.24
2022-10-19T09:42:58.631Z,23.46
2022-10-19T09:48:10.813Z,23.40
2022-10-19T09:53:21.672Z,23.33
2022-10-19T09:58:32.937Z,23.39
2022-10-19T10:03:40.538Z,23.75
2022-10-19T10:08:49.010Z,23.76
2022-10-19T10:13:56.472Z,24.04
2022-10-19T10:19:05.689Z,23.95
2022-10-19T10:24:18.752Z,24.67
2022-10-19T10:29:28.174Z,24.15
2022-10-19T10:34:46.037Z,24.58
2022-10-19T10:39:57.836Z,23.92
2022-10-19T10:45:20.529Z,24.25
2022-10-19T10:50:27.198Z,23.70
2022-10-19T10:55:32.219Z,23.80
2022-10-19T11:00:40.515Z,24.17
2022-10-19T11:05:49.217Z,24.34
2022-10-19T11:11:00.875Z,24.49
2022-10-19T11:16:15.026Z,24.23
2022-10-19T11:21:25.777Z,24.04
2022-10-19T11:26:43.046Z,24.19
2022-10-19T11:31:51.706Z,23.84
2022-10-19T11:37:07.968Z,24.29
2022-10-19T11:42:22.168Z,23.90
2022-10-19T11:47:43.272Z,23.94
2022-10-19T11:52:58.407Z,24.33
2022-10-19T11:58:16.282Z,24.90
2022-10-19T12:03:42.755Z,24.87
2022-10-19T12:09:14.682Z,24.95
2022-10-19T12:14:22.863Z,25.22
2022-10-19T12:19:36.257Z,25.69
2022-10-19T12:24:40.243Z,25.85
2022-10-19T12:29:50.062Z,25.94
2022-10-19T12:35:03.439Z,25.55
2022-10-19T12:40:20.586Z,25.58
2022-10-19T12:45:30.972Z,25.68
2022-10-19T12:51:07.175Z,25.69
2022-10-19T12:56:17.237Z,25.29
2022-10-19T13:01:24.966Z,25.12
2022-10-19T13:06:35.606Z,25.45
2022-10-19T13:12:34.946Z,25.29
2022-10-19T13:17:43.868Z,24.88
2022-10-19T13:22:51.186Z,24.47
2022-10-19T13:28:01.550Z,24.80
2022-10-19T13:33:38.930Z,24.43
2022-10-19T13:38:44.551Z,23.78
2022-10-19T13:44:20.218Z,23.65
2022-10-19T13:49:54.642Z,23.90
2022-10-19T13:55:18.312Z,23.38
2022-10-19T14:00:26.849Z,23.35
2022-10-19T14:05:57.633Z,22.99
2022-10-19T14:11:07.851Z,22.85
2022-10-19T14:16:27.021Z,22.35
2022-10-19T14:21:31.769Z,22.62
2022-10-19T14:26:36.992Z,22.42
2022-10-19T14:31:42.890Z,22.37
2022-10-19T14:36:49.588Z,22.41
2022-10-19T14:41:57.152Z,22.68
2022-10-19T14:47:17.408Z,22.99
2022-10-19T14:57:36.329Z,22.63
2022-10-19T15:02:46.271Z,22.53
2022-10-19T15:08:37.428Z,21.84
2022-10-19T15:14:11.816Z,21.19
2022-10-19T15:19:29.148Z,20.53
2022-10-19T15:24:33.172Z,19.82
2022-10-19T15:29:37.241Z,19.10
2022-10-19T15:34:45.065Z,18.85
2022-10-19T15:39:49.766Z,18.55
2022-10-19T15:44:54.730Z,18.31
2022-10-19T15:50:03.154Z,18.12
2022-10-19T15:55:08.209Z,17.89
2022-10-19T16:00:15.576Z,17.76
2022-10-19T16:05:21.865Z,17.61
2022-10-19T16:10:27.911Z,17.52
2022-10-19T16:15:32.004Z,17.50
2022-10-19T16:20:38.990Z,17.55
2022-10-19T16:25:43.706Z,17.48
2022-10-19T16:30:55.252Z,17.45
2022-10-19T16:36:05.512Z,17.33
2022-10-19T16:41:12.017Z,17.30
2022-10-19T16:46:16.350Z,17.14
2022-10-19T16:51:38.504Z,16.99
2022-10-19T16:56:45.648Z,16.87
2022-10-19T17:01:53.890Z,16.86
2022-10-19T17:07:00.253Z,16.65
2022-10-19T17:12:06.906Z,16.69
2022-10-19T17:17:12.175Z,16.47
2022-10-19T17:22:20.382Z,16.48
2022-10-19T17:27:24.553Z,16.54
2022-10-19T17:32:28.714Z,16.46
2022-10-19T17:37:34.573Z,16.43
2022-10-19T17:42:39.598Z,16.31
2022-10-19T17:47:43.616Z,16.17
2022-10-19T17:52:51.717Z,16.14
2022-10-19T17:57:56.285Z,16.13
2022-10-19T18:03:00.349Z,16.07
2022-10-19T18:08:05.919Z,16.06
2022-10-19T18:13:10.861Z,15.92
2022-10-19T18:18:14.868Z,15.76
2022-10-19T18:23:21.768Z,15.63
2022-10-19T18:28:27.391Z,15.85
2022-10-19T18:33:32.536Z,15.60
2022-10-19T18:38:38.924Z,15.46
2022-10-19T18:43:43.024Z,15.62
2022-10-19T18:48:47.970Z,15.48
2022-10-19T18:53:55.439Z,15.58
2022-10-19T18:58:59.670Z,15.61
2022-10-19T19:04:09.707Z,15.57
2022-10-19T19:09:15.910Z,15.62
2022-10-19T19:14:22.106Z,15.48
2022-10-19T19:19:27.641Z,15.42
2022-10-19T19:24:33.139Z,15.52
2022-10-19T19:29:40.145Z,15.49
2022-10-19T19:34:44.582Z,15.38
2022-10-19T19:39:51.085Z,15.37
2022-10-19T19:44:58.805Z,15.39
2022-10-19T19:50:02.817Z,15.27
2022-10-19T19:55:11.141Z,15.23
2022-10-19T20:00:16.554Z,15.06
2022-10-19T20:05:22.346Z,15.02
2022-10-19T20:10:28.231Z,14.99
2022-10-19T20:15:34.577Z,15.00
2022-10-19T20:20:38.832Z,14.87
2022-10-19T20:25:44.596Z,14.82
2022-10-19T20:30:48.657Z,14.81
2022-10-19T20:35:52.973Z,14.73
2022-10-19T20:41:01.058Z,14.68
2022-10-19T20:46:11.505Z,14.63
2022-10-19T20:51:20.745Z,14.58
2022-10-19T20:56:28.298Z,14.50
2022-10-19T21:01:35.067Z,14.48
2022-10-19T21:06:41.572Z,14.58
2022-10-19T21:11:50.229Z,14.63
2022-10-19T21:16:56.554Z,14.70
2022-10-19T21:22:03.173Z,14.63
2022-10-19T21:27:10.928Z,14.67
2022-10-19T21:32:14.908Z,14.61
2022-10-19T21:37:20.413Z,14.63
2022-10-19T21:42:29.092Z,14.61
2022-10-19T21:47:33.557Z,14.34
2022-10-19T21:52:40.230Z,14.37
2022-10-19T21:57:50.247Z,14.33
2022-10-19T22:02:55.804Z,14.67
2022-10-19T22:08:00.145Z,14.44
2022-10-19T22:13:05.570Z,14.46
2022-10-19T22:18:10.142Z,14.55
2022-10-19T22:23:14.657Z,14.81
2022-10-19T22:28:20.343Z,14.76
2022-10-19T22:33:25.278Z,14.66
2022-10-19T22:38:30.213Z,14.50
2022-10-19T22:43:35.600Z,14.56
2022-10-19T22:48:39.629Z,14.67
2022-10-19T22:53:43.984Z,14.69
2022-10-19T22:58:49.506Z,14.76
2022-10-19T23:03:53.500Z,14.68
2022-10-19T23:08:57.531Z,14.46
2022-10-19T23:14:02.923Z,14.28
2022-10-19T23:19:06.938Z,14.27
2022-10-19T23:24:11.097Z,14.19
2022-10-19T23:29:16.497Z,13.94
2022-10-19T23:34:20.621Z,13.79
2022-10-19T23:39:24.852Z,13.89
2022-10-19T23:44:30.334Z,13.86
2022-10-19T23:49:34.723Z,13.74
2022-10-19T23:54:38.818Z,13.75
2022-10-19T23:59:44.228Z,13.71
